createdAt,value
2019-03-23T00:01:57.357Z,152.00
2019-03-23T00:04:26.931Z,148.17
2019-03-23T00:06:56.400Z,158.73
2019-03-23T00:09:25.854Z,153.87
2019-03-23T00:11:55.276Z,153.73
2019-03-23T00:14:24.763Z,147.83
2019-03-23T00:16:54.149Z,144.40
2019-03-23T00:19:23.630Z,152.97
2019-03-23T00:21:53.107Z,147.30
2019-03-23T00:24:22.638Z,151.43
2019-03-23T00:26:52.024Z,173.03
2019-03-23T00:29:21.427Z,165.23
2019-03-23T00:31:50.811Z,163.67
2019-03-23T00:34:21.763Z,161.83
2019-03-23T00:36:51.312Z,168.97
2019-03-23T00:39:20.887Z,165.80
2019-03-23T00:41:50.291Z,169.93
2019-03-23T00:44:19.743Z,165.53
2019-03-23T00:46:49.129Z,167.27
2019-03-23T00:49:18.588Z,184.67
2019-03-23T00:51:47.942Z,182.40
2019-03-23T00:54:17.335Z,190.93
2019-03-23T00:56:46.871Z,208.13
2019-03-23T00:59:17.824Z,210.53
2019-03-23T01:01:47.421Z,211.20
2019-03-23T01:04:16.791Z,231.53
2019-03-23T01:06:52.107Z,198.60
2019-03-23T01:09:17.630Z,215.00
2019-03-23T01:11:47.162Z,210.90
2019-03-23T01:14:16.969Z,202.80
2019-03-23T01:16:46.380Z,218.60
2019-03-23T01:19:15.998Z,217.67
2019-03-23T01:21:45.455Z,222.73
2019-03-23T01:24:14.852Z,225.23
2019-03-23T01:26:44.257Z,227.57
2019-03-23T01:29:13.750Z,213.43
2019-03-23T01:31:43.347Z,227.07
2019-03-23T01:34:12.739Z,230.27
2019-03-23T01:36:42.142Z,226.53
2019-03-23T01:39:11.594Z,212.33
2019-03-23T01:41:40.987Z,204.73
2019-03-23T01:44:10.473Z,217.07
2019-03-23T01:46:39.987Z,220.87
2019-03-23T01:49:10.637Z,203.93
2019-03-23T01:51:40.081Z,194.87
2019-03-23T01:54:09.551Z,194.73
2019-03-23T01:56:38.906Z,214.33
2019-03-23T01:59:08.372Z,198.73
2019-03-23T02:01:37.731Z,221.23
2019-03-23T02:04:07.269Z,190.30
2019-03-23T02:06:36.627Z,226.07
2019-03-23T02:09:07.550Z,209.53
2019-03-23T02:11:37.027Z,202.40
2019-03-23T02:14:06.596Z,212.57
2019-03-23T02:16:36.123Z,218.07
2019-03-23T02:19:05.592Z,213.83
2019-03-23T02:21:35.056Z,215.80
2019-03-23T02:24:04.494Z,222.73
2019-03-23T02:26:33.935Z,228.33
2019-03-23T02:29:04.922Z,210.47
2019-03-23T02:31:34.403Z,202.57
2019-03-23T02:34:03.871Z,222.03
2019-03-23T02:36:33.346Z,201.93
2019-03-23T02:39:04.583Z,218.10
2019-03-23T02:41:33.980Z,197.60
2019-03-23T02:44:03.599Z,187.57
2019-03-23T02:46:33.231Z,183.93
2019-03-23T02:49:02.757Z,198.47
2019-03-23T02:51:32.222Z,198.93
2019-03-23T02:54:01.595Z,195.63
2019-03-23T02:56:31.114Z,191.23
2019-03-23T02:59:00.613Z,186.87
2019-03-23T03:01:30.014Z,181.17
2019-03-23T03:03:59.453Z,178.47
2019-03-23T03:06:29.043Z,192.57
2019-03-23T03:08:58.589Z,180.73
2019-03-23T03:11:28.458Z,200.97
2019-03-23T03:13:57.968Z,196.83
2019-03-23T03:16:27.416Z,201.37
2019-03-23T03:18:56.848Z,191.17
2019-03-23T03:21:28.641Z,193.63
2019-03-23T03:23:58.072Z,192.47
2019-03-23T03:26:27.458Z,198.60
2019-03-23T03:28:56.853Z,190.23
2019-03-23T03:31:26.252Z,176.53
2019-03-23T03:33:55.871Z,201.10
2019-03-23T03:36:25.524Z,177.37
2019-03-23T03:38:54.965Z,173.50
2019-03-23T03:41:24.999Z,174.30
2019-03-23T03:43:54.568Z,179.17
2019-03-23T03:46:23.964Z,168.80
2019-03-23T03:48:53.717Z,185.47
2019-03-23T03:51:23.139Z,182.03
2019-03-23T03:53:52.540Z,185.30
2019-03-23T03:56:22.063Z,170.20
2019-03-23T03:58:51.579Z,169.57
2019-03-23T04:01:21.000Z,176.40
2019-03-23T04:03:50.454Z,180.47
2019-03-23T04:06:19.860Z,186.47
2019-03-23T04:08:49.673Z,174.10
2019-03-23T04:11:19.161Z,176.30
2019-03-23T04:13:48.628Z,179.70
2019-03-23T04:16:18.016Z,177.93
2019-03-23T04:18:47.484Z,189.43
2019-03-23T04:21:16.922Z,180.70
2019-03-23T04:23:46.394Z,168.43
2019-03-23T04:26:15.886Z,172.77
2019-03-23T04:28:45.406Z,171.93
2019-03-23T04:31:14.811Z,160.63
2019-03-23T04:33:45.122Z,172.97
2019-03-23T04:36:15.374Z,165.63
2019-03-23T04:38:44.838Z,155.03
2019-03-23T04:41:14.802Z,157.97
2019-03-23T04:43:44.336Z,155.37
2019-03-23T04:46:14.172Z,161.77
2019-03-23T04:48:43.646Z,152.23
2019-03-23T04:51:13.047Z,159.47
2019-03-23T04:53:42.411Z,162.97
2019-03-23T04:56:11.809Z,148.03
2019-03-23T04:58:41.241Z,155.93
2019-03-23T05:01:10.706Z,146.87
2019-03-23T05:03:40.131Z,147.67
2019-03-23T05:06:09.659Z,137.53
2019-03-23T05:08:39.100Z,136.27
2019-03-23T05:11:08.560Z,142.33
2019-03-23T05:13:37.990Z,142.00
2019-03-23T05:16:07.456Z,135.67
2019-03-23T05:18:36.915Z,134.50
2019-03-23T05:21:06.291Z,129.17
2019-03-23T05:23:35.755Z,131.00
2019-03-23T05:26:05.218Z,136.87
2019-03-23T05:28:34.607Z,126.43
2019-03-23T05:31:04.071Z,126.70
2019-03-23T05:33:33.459Z,122.60
2019-03-23T05:36:02.865Z,124.13
2019-03-23T05:38:32.268Z,118.90
2019-03-23T05:41:01.663Z,123.43
2019-03-23T05:43:31.051Z,111.63
2019-03-23T05:46:00.433Z,121.60
2019-03-23T05:48:30.134Z,113.47
2019-03-23T05:50:59.587Z,117.10
2019-03-23T05:53:29.685Z,114.70
2019-03-23T05:55:59.089Z,114.10
2019-03-23T05:58:28.443Z,115.37
2019-03-23T06:00:57.824Z,108.10
2019-03-23T06:03:27.282Z,114.50
2019-03-23T06:05:56.707Z,108.77
2019-03-23T06:08:26.107Z,109.90
2019-03-23T06:10:57.178Z,107.60
2019-03-23T06:13:26.571Z,107.10
2019-03-23T06:15:55.927Z,103.03
2019-03-23T06:18:25.671Z,99.47
2019-03-23T06:20:55.034Z,99.23
2019-03-23T06:23:24.476Z,98.53
2019-03-23T06:25:53.852Z,102.97
2019-03-23T06:28:23.423Z,100.63
2019-03-23T06:30:52.947Z,104.53
2019-03-23T06:33:22.506Z,95.37
2019-03-23T06:35:52.252Z,90.20
2019-03-23T06:38:21.708Z,93.37
2019-03-23T06:40:51.476Z,85.83
2019-03-23T06:43:21.027Z,92.10
2019-03-23T06:45:50.552Z,93.53
2019-03-23T06:48:20.326Z,87.67
2019-03-23T06:50:49.779Z,92.83
2019-03-23T06:53:19.147Z,87.00
2019-03-23T06:55:48.535Z,81.43
2019-03-23T06:58:18.071Z,87.60
2019-03-23T07:00:49.088Z,83.67
2019-03-23T07:03:18.730Z,85.33
2019-03-23T07:05:48.295Z,81.80
2019-03-23T07:08:17.752Z,81.50
2019-03-23T07:10:47.208Z,81.70
2019-03-23T07:13:16.928Z,74.93
2019-03-23T07:15:47.973Z,72.70
2019-03-23T07:18:17.354Z,74.87
2019-03-23T07:20:46.875Z,75.50
2019-03-23T07:23:16.303Z,72.57
2019-03-23T07:25:45.713Z,77.47
2019-03-23T07:28:15.168Z,78.70
2019-03-23T07:30:44.680Z,73.07
2019-03-23T07:33:15.744Z,71.53
2019-03-23T07:35:45.147Z,68.93
2019-03-23T07:38:14.545Z,73.30
2019-03-23T07:40:43.986Z,69.23
2019-03-23T07:43:13.519Z,71.57
2019-03-23T07:45:43.036Z,65.63
2019-03-23T07:48:12.564Z,71.43
2019-03-23T07:50:41.955Z,68.37
2019-03-23T07:53:11.477Z,72.17
2019-03-23T07:55:40.928Z,67.47
2019-03-23T07:58:10.591Z,68.20
2019-03-23T08:00:41.087Z,62.50
2019-03-23T08:03:10.562Z,66.00
2019-03-23T08:05:40.018Z,65.63
2019-03-23T08:08:09.366Z,66.87
2019-03-23T08:10:38.770Z,62.73
2019-03-23T08:13:08.196Z,63.97
2019-03-23T08:15:37.712Z,64.53
2019-03-23T08:18:07.216Z,64.60
2019-03-23T08:20:36.622Z,62.47
2019-03-23T08:23:06.047Z,62.30
2019-03-23T08:25:35.544Z,61.07
2019-03-23T08:28:05.035Z,65.70
2019-03-23T08:30:34.433Z,61.43
2019-03-23T08:33:03.932Z,63.90
2019-03-23T08:35:33.438Z,61.30
2019-03-23T08:38:02.942Z,60.27
2019-03-23T08:40:32.460Z,64.17
2019-03-23T08:43:01.818Z,61.93
2019-03-23T08:45:31.478Z,55.43
2019-03-23T08:48:00.863Z,55.63
2019-03-23T08:50:30.316Z,57.17
2019-03-23T08:52:59.912Z,58.70
2019-03-23T08:55:29.331Z,54.73
2019-03-23T08:57:58.926Z,54.37
2019-03-23T09:00:28.353Z,51.37
2019-03-23T09:02:57.941Z,47.73
2019-03-23T09:05:27.396Z,50.33
2019-03-23T09:07:57.087Z,43.00
2019-03-23T09:10:26.581Z,42.57
2019-03-23T09:12:56.127Z,37.17
2019-03-23T09:15:25.656Z,43.63
2019-03-23T09:17:55.190Z,34.03
2019-03-23T09:20:24.797Z,40.97
2019-03-23T09:22:54.283Z,42.90
2019-03-23T09:25:23.753Z,43.93
2019-03-23T09:27:53.849Z,43.50
2019-03-23T09:30:23.346Z,42.93
2019-03-23T09:32:52.734Z,41.37
2019-03-23T09:35:22.132Z,41.20
2019-03-23T09:37:51.580Z,37.03
2019-03-23T09:40:20.983Z,42.20
2019-03-23T09:42:50.345Z,42.87
2019-03-23T09:45:19.725Z,38.47
2019-03-23T09:47:49.119Z,33.77
2019-03-23T09:50:18.474Z,41.17
2019-03-23T09:52:48.019Z,35.30
2019-03-23T09:55:17.514Z,31.87
2019-03-23T09:57:46.971Z,37.60
2019-03-23T10:00:16.482Z,34.67
2019-03-23T10:02:46.247Z,30.97
2019-03-23T10:05:15.716Z,35.50
2019-03-23T10:07:45.090Z,27.53
2019-03-23T10:10:21.776Z,30.93
2019-03-23T10:12:45.856Z,21.23
2019-03-23T10:15:15.284Z,18.20
2019-03-23T10:17:45.971Z,24.83
2019-03-23T10:20:15.583Z,29.63
2019-03-23T10:22:45.058Z,24.60
2019-03-23T10:25:14.533Z,22.60
2019-03-23T10:27:43.996Z,24.37
2019-03-23T10:30:14.192Z,18.77
2019-03-23T10:32:43.554Z,17.67
2019-03-23T10:35:13.019Z,19.50
2019-03-23T10:37:42.404Z,19.60
2019-03-23T10:40:12.072Z,21.73
2019-03-23T10:42:43.328Z,22.77
2019-03-23T10:45:12.906Z,18.13
2019-03-23T10:50:25.925Z,23.80
2019-03-23T10:52:55.413Z,22.73
2019-03-23T10:55:24.806Z,21.33
2019-03-23T10:57:54.225Z,16.60
2019-03-23T11:00:23.670Z,21.93
2019-03-23T11:02:53.942Z,20.13
2019-03-23T11:05:23.480Z,19.50
2019-03-23T11:07:52.951Z,13.40
2019-03-23T11:10:22.612Z,20.80
2019-03-23T11:12:52.070Z,19.17
2019-03-23T11:15:21.592Z,17.17
2019-03-23T11:17:50.978Z,12.97
2019-03-23T11:20:20.379Z,14.07
2019-03-23T11:22:49.775Z,18.87
2019-03-23T11:25:19.264Z,14.60
2019-03-23T11:27:48.872Z,13.83
2019-03-23T11:30:31.254Z,12.87
2019-03-23T11:33:02.291Z,12.43
2019-03-23T11:35:31.695Z,11.03
2019-03-23T11:38:14.314Z,13.07
2019-03-23T11:40:52.164Z,12.70
2019-03-23T11:43:28.109Z,10.80
2019-03-23T11:45:57.647Z,14.83
2019-03-23T11:48:27.186Z,19.57
2019-03-23T11:50:56.685Z,17.07
2019-03-23T11:53:26.079Z,14.93
2019-03-23T11:55:55.544Z,13.07
2019-03-23T11:58:24.947Z,11.73
2019-03-23T12:00:54.359Z,14.70
2019-03-23T12:03:23.767Z,13.97
2019-03-23T12:05:53.311Z,13.80
2019-03-23T12:08:22.787Z,16.67
2019-03-23T12:11:02.257Z,13.40
2019-03-23T12:13:23.425Z,12.47
2019-03-23T12:15:53.531Z,12.23
2019-03-23T12:18:23.022Z,10.73
2019-03-23T12:20:52.482Z,10.93
2019-03-23T12:23:21.868Z,13.90
2019-03-23T12:25:51.381Z,11.87
2019-03-23T12:28:20.871Z,14.57
2019-03-23T12:30:50.416Z,15.33
2019-03-23T12:33:21.485Z,13.37
2019-03-23T12:35:51.373Z,13.93
2019-03-23T12:38:20.804Z,14.63
2019-03-23T12:40:50.195Z,15.40
2019-03-23T12:43:19.731Z,13.80
2019-03-23T12:45:49.230Z,16.17
2019-03-23T12:48:18.663Z,12.03
2019-03-23T12:50:48.056Z,18.97
2019-03-23T12:53:17.495Z,15.00
2019-03-23T12:55:46.932Z,13.77
2019-03-23T12:58:16.298Z,13.17
2019-03-23T13:00:47.449Z,13.77
2019-03-23T13:03:16.884Z,13.00
2019-03-23T13:05:46.274Z,14.40
2019-03-23T13:08:15.699Z,14.53
2019-03-23T13:10:45.090Z,12.57
2019-03-23T13:13:14.447Z,15.03
2019-03-23T13:15:43.912Z,14.43
2019-03-23T13:18:13.344Z,16.57
2019-03-23T13:20:42.804Z,15.33
2019-03-23T13:23:12.782Z,14.77
2019-03-23T13:25:42.355Z,14.90
2019-03-23T13:28:13.247Z,15.73
2019-03-23T13:30:42.832Z,12.93
2019-03-23T13:33:12.303Z,15.57
2019-03-23T13:35:41.767Z,15.97
2019-03-23T13:38:11.763Z,15.37
2019-03-23T13:40:41.225Z,16.27
2019-03-23T13:43:10.623Z,14.50
2019-03-23T13:45:42.738Z,17.87
2019-03-23T13:48:11.100Z,16.83
2019-03-23T13:50:40.639Z,12.10
2019-03-23T13:53:10.211Z,16.47
2019-03-23T13:55:39.607Z,14.80
2019-03-23T13:58:10.629Z,16.30
2019-03-23T14:00:40.171Z,24.43
2019-03-23T14:03:09.915Z,16.50
2019-03-23T14:05:39.554Z,18.77
2019-03-23T14:08:08.981Z,19.17
2019-03-23T14:10:38.680Z,16.57
2019-03-23T14:13:08.110Z,18.07
2019-03-23T14:15:37.842Z,14.03
2019-03-23T14:18:07.342Z,19.27
2019-03-23T14:20:36.871Z,21.90
2019-03-23T14:23:06.423Z,17.83
2019-03-23T14:25:35.990Z,20.87
2019-03-23T14:28:05.431Z,14.20
2019-03-23T14:30:34.814Z,18.70
2019-03-23T14:33:04.389Z,20.00
2019-03-23T14:35:34.571Z,15.80
2019-03-23T14:38:04.007Z,16.70
2019-03-23T14:40:33.382Z,19.43
2019-03-23T14:43:02.738Z,22.03
2019-03-23T14:45:32.139Z,17.67
2019-03-23T14:48:01.584Z,17.80
2019-03-23T14:50:32.497Z,19.33
2019-03-23T14:53:01.988Z,16.90
2019-03-23T14:55:31.444Z,18.27
2019-03-23T14:58:00.865Z,20.87
2019-03-23T15:00:31.814Z,18.17
2019-03-23T15:03:01.173Z,16.17
2019-03-23T15:05:30.669Z,17.17
2019-03-23T15:08:00.174Z,20.80
2019-03-23T15:10:29.575Z,23.13
2019-03-23T15:12:59.019Z,23.87
2019-03-23T15:15:28.625Z,23.97
2019-03-23T15:17:58.146Z,23.03
2019-03-23T15:20:27.692Z,25.37
2019-03-23T15:22:57.155Z,25.27
2019-03-23T15:25:26.735Z,18.77
2019-03-23T15:27:56.204Z,22.03
2019-03-23T15:30:25.736Z,18.43
2019-03-23T15:32:56.037Z,20.00
2019-03-23T15:35:25.544Z,18.63
2019-03-23T15:37:54.917Z,17.67
2019-03-23T15:40:24.410Z,20.00
2019-03-23T15:42:53.898Z,29.83
2019-03-23T15:45:23.403Z,23.43
2019-03-23T15:47:52.882Z,17.43
2019-03-23T15:50:22.341Z,16.77
2019-03-23T15:52:51.843Z,16.50
2019-03-23T15:55:21.384Z,23.27
2019-03-23T15:57:50.818Z,20.93
2019-03-23T16:00:20.290Z,19.50
2019-03-23T16:02:49.783Z,23.47
2019-03-23T16:05:20.696Z,20.33
2019-03-23T16:07:50.079Z,25.53
2019-03-23T16:10:19.562Z,23.73
2019-03-23T16:12:48.901Z,26.23
2019-03-23T16:15:18.420Z,22.97
2019-03-23T16:17:47.897Z,25.93
2019-03-23T16:20:17.482Z,26.60
2019-03-23T16:22:46.864Z,27.87
2019-03-23T16:25:16.225Z,27.37
2019-03-23T16:27:45.682Z,20.70
2019-03-23T16:30:18.099Z,28.77
2019-03-23T16:32:47.554Z,23.43
2019-03-23T16:35:16.925Z,23.40
2019-03-23T16:37:46.443Z,22.93
2019-03-23T16:40:15.935Z,22.77
2019-03-23T16:42:45.891Z,21.43
2019-03-23T16:45:15.552Z,23.57
2019-03-23T16:47:45.076Z,27.57
2019-03-23T16:50:14.557Z,20.93
2019-03-23T16:52:44.017Z,25.63
2019-03-23T16:55:13.571Z,26.73
2019-03-23T16:57:42.970Z,27.97
2019-03-23T17:00:14.807Z,31.97
2019-03-23T17:02:44.403Z,27.00
2019-03-23T17:05:13.990Z,25.83
2019-03-23T17:07:44.982Z,27.90
2019-03-23T17:10:14.548Z,26.67
2019-03-23T17:12:44.159Z,28.27
2019-03-23T17:15:13.968Z,21.83
2019-03-23T17:17:43.367Z,28.33
2019-03-23T17:20:12.925Z,35.37
2019-03-23T17:22:42.460Z,32.50
2019-03-23T17:25:12.201Z,25.50
2019-03-23T17:27:41.702Z,25.30
2019-03-23T17:30:11.883Z,33.83
2019-03-23T17:32:41.498Z,21.13
2019-03-23T17:35:10.985Z,26.17
2019-03-23T17:37:40.381Z,24.17
2019-03-23T17:40:12.760Z,31.37
2019-03-23T17:42:42.224Z,30.43
2019-03-23T17:45:12.003Z,25.90
2019-03-23T17:47:41.501Z,23.57
2019-03-23T17:50:11.093Z,33.80
2019-03-23T17:52:40.612Z,27.73
2019-03-23T17:55:10.136Z,26.97
2019-03-23T17:57:39.579Z,27.93
2019-03-23T18:00:09.976Z,31.23
2019-03-23T18:02:39.473Z,27.10
2019-03-23T18:05:12.087Z,28.13
2019-03-23T18:07:40.990Z,31.37
2019-03-23T18:10:11.171Z,21.07
2019-03-23T18:12:40.523Z,32.77
2019-03-23T18:15:10.976Z,25.53
2019-03-23T18:17:40.529Z,28.80
2019-03-23T18:20:10.386Z,30.73
2019-03-23T18:22:39.811Z,27.43
2019-03-23T18:25:09.937Z,38.17
2019-03-23T18:27:39.362Z,37.90
2019-03-23T18:30:32.958Z,37.00
2019-03-23T18:33:02.616Z,26.50
2019-03-23T18:35:33.862Z,23.87
2019-03-23T18:38:03.914Z,25.33
2019-03-23T18:40:33.986Z,29.67
2019-03-23T18:43:03.419Z,30.53
2019-03-23T18:45:32.946Z,25.37
2019-03-23T18:48:02.440Z,26.83
2019-03-23T18:50:32.027Z,25.20
2019-03-23T18:53:01.453Z,37.20
2019-03-23T18:55:30.987Z,27.97
2019-03-23T18:58:00.405Z,23.60
2019-03-23T19:00:52.190Z,29.33
2019-03-23T19:03:21.724Z,28.30
2019-03-23T19:05:51.174Z,34.57
2019-03-23T19:08:20.631Z,30.77
2019-03-23T19:10:50.050Z,29.87
2019-03-23T19:13:19.535Z,34.13
2019-03-23T19:15:48.951Z,32.80
2019-03-23T19:18:19.872Z,28.20
2019-03-23T19:20:49.247Z,26.50
2019-03-23T19:23:20.150Z,25.37
2019-03-23T19:25:49.575Z,22.63
2019-03-23T19:28:19.013Z,29.23
2019-03-23T19:30:48.632Z,26.23
2019-03-23T19:33:18.098Z,26.30
2019-03-23T19:35:47.460Z,25.23
2019-03-23T19:38:18.189Z,24.27
2019-03-23T19:40:47.847Z,23.67
2019-03-23T19:43:17.256Z,25.50
2019-03-23T19:45:46.684Z,30.23
2019-03-23T19:48:16.071Z,33.10
2019-03-23T19:50:45.452Z,30.67
2019-03-23T19:53:15.003Z,25.83
2019-03-23T19:55:44.378Z,24.83
2019-03-23T19:58:13.829Z,20.27
2019-03-23T20:00:43.239Z,21.87
2019-03-23T20:03:12.633Z,23.20
2019-03-23T20:05:42.056Z,19.67
2019-03-23T20:08:11.539Z,22.00
2019-03-23T20:10:41.066Z,20.20
2019-03-23T20:13:13.543Z,18.60
2019-03-23T20:15:42.897Z,21.37
2019-03-23T20:18:12.422Z,25.50
2019-03-23T20:20:42.142Z,20.77
2019-03-23T20:23:11.617Z,26.93
2019-03-23T20:25:40.966Z,21.13
2019-03-23T20:28:10.487Z,26.07
2019-03-23T20:30:39.943Z,35.77
2019-03-23T20:33:19.032Z,25.30
2019-03-23T20:35:40.604Z,29.43
2019-03-23T20:38:10.061Z,19.10
2019-03-23T20:40:39.553Z,24.53
2019-03-23T20:43:09.087Z,21.63
2019-03-23T20:45:38.497Z,24.90
2019-03-23T20:48:09.663Z,20.60
2019-03-23T20:50:39.070Z,24.47
2019-03-23T20:53:08.645Z,20.77
2019-03-23T20:55:38.105Z,24.23
2019-03-23T20:58:07.524Z,26.50
2019-03-23T21:00:36.956Z,22.27
2019-03-23T21:03:06.362Z,21.80
2019-03-23T21:05:35.746Z,19.03
2019-03-23T21:08:05.302Z,26.83
2019-03-23T21:10:34.669Z,18.60
2019-03-23T21:13:04.191Z,23.80
2019-03-23T21:15:33.664Z,26.67
2019-03-23T21:18:04.727Z,20.23
2019-03-23T21:20:34.197Z,22.47
2019-03-23T21:23:03.745Z,19.50
2019-03-23T21:25:33.211Z,26.53
2019-03-23T21:28:02.729Z,19.87
2019-03-23T21:30:32.151Z,15.37
2019-03-23T21:33:01.573Z,22.80
2019-03-23T21:35:31.023Z,23.50
2019-03-23T21:38:00.451Z,20.87
2019-03-23T21:40:29.856Z,27.00
2019-03-23T21:42:59.361Z,23.53
2019-03-23T21:45:28.901Z,16.13
2019-03-23T21:47:58.328Z,22.67
2019-03-23T21:50:27.910Z,17.90
2019-03-23T21:52:57.392Z,19.53
2019-03-23T21:55:27.523Z,24.67
2019-03-23T21:57:56.953Z,18.70
2019-03-23T22:00:32.761Z,19.50
2019-03-23T22:03:02.387Z,17.17
2019-03-23T22:05:31.995Z,26.47
2019-03-23T22:08:01.346Z,23.93
2019-03-23T22:10:30.889Z,24.20
2019-03-23T22:13:00.451Z,21.53
2019-03-23T22:15:31.640Z,16.27
2019-03-23T22:18:01.122Z,19.33
2019-03-23T22:20:30.528Z,23.57
2019-03-23T22:22:59.963Z,21.37
2019-03-23T22:25:29.466Z,20.60
2019-03-23T22:27:58.815Z,18.40
2019-03-23T22:30:28.258Z,22.30
2019-03-23T22:32:57.687Z,26.50
2019-03-23T22:35:27.071Z,19.83
2019-03-23T22:37:56.529Z,24.00
2019-03-23T22:40:28.131Z,26.03
2019-03-23T22:42:57.028Z,24.33
2019-03-23T22:45:26.491Z,21.33
2019-03-23T22:47:55.922Z,24.77
2019-03-23T22:50:25.400Z,21.57
2019-03-23T22:52:54.767Z,18.83
2019-03-23T22:55:24.282Z,22.23
2019-03-23T22:57:53.699Z,24.67
2019-03-23T23:00:33.768Z,26.70
2019-03-23T23:03:03.321Z,22.13
2019-03-23T23:05:32.699Z,21.63
2019-03-23T23:08:02.053Z,23.60
2019-03-23T23:10:31.528Z,24.33
2019-03-23T23:13:00.951Z,17.60
2019-03-23T23:15:30.744Z,21.63
2019-03-23T23:18:00.334Z,20.47
2019-03-23T23:20:29.721Z,21.23
2019-03-23T23:22:59.114Z,20.43
2019-03-23T23:25:28.656Z,17.83
2019-03-23T23:27:58.315Z,24.47
2019-03-23T23:30:27.723Z,23.10
2019-03-23T23:32:57.250Z,21.03
2019-03-23T23:35:27.010Z,23.00
2019-03-23T23:37:56.626Z,17.73
2019-03-23T23:40:26.117Z,19.73
2019-03-23T23:42:55.613Z,17.20
2019-03-23T23:45:25.058Z,22.27
2019-03-23T23:47:54.490Z,15.20
2019-03-23T23:50:23.945Z,17.13
2019-03-23T23:52:53.407Z,16.77
2019-03-23T23:55:23.041Z,16.30
2019-03-23T23:57:52.498Z,18.40
